createdAt,value
2019-01-04T00:01:34.613Z,-1.80
2019-01-04T00:06:39.864Z,-1.60
2019-01-04T00:11:45.118Z,-1.50
2019-01-04T00:16:50.386Z,-1.40
2019-01-04T00:21:55.726Z,-1.30
2019-01-04T00:27:01.134Z,-1.30
2019-01-04T00:32:06.454Z,-1.20
2019-01-04T00:37:11.766Z,-1.20
2019-01-04T00:42:17.013Z,-1.20
2019-01-04T00:47:22.297Z,-1.10
2019-01-04T00:52:27.577Z,-1.10
2019-01-04T00:58:08.072Z,-1.00
2019-01-04T01:04:31.330Z,-1.00
2019-01-04T01:10:11.334Z,-0.90
2019-01-04T01:16:36.850Z,-0.90
2019-01-04T01:22:03.118Z,-0.80
2019-01-04T01:28:15.920Z,-0.80
2019-01-04T01:34:42.481Z,-0.80
2019-01-04T01:41:09.313Z,-0.70
2019-01-04T01:46:41.438Z,-0.60
2019-01-04T01:52:02.702Z,-0.60
2019-01-04T01:57:08.001Z,-0.60
2019-01-04T02:02:13.251Z,-0.60
2019-01-04T02:07:18.493Z,-0.60
2019-01-04T02:12:23.719Z,-0.50
2019-01-04T02:17:29.064Z,-0.50
2019-01-04T02:22:34.290Z,-0.40
2019-01-04T02:27:39.566Z,-0.30
2019-01-04T02:32:44.791Z,-0.30
2019-01-04T02:37:50.017Z,-0.30
2019-01-04T02:42:55.300Z,-0.30
2019-01-04T02:48:00.541Z,-0.30
2019-01-04T02:53:05.769Z,-0.30
2019-01-04T02:58:11.062Z,-0.20
2019-01-04T03:03:16.326Z,-0.20
2019-01-04T03:08:21.558Z,-0.30
2019-01-04T03:13:26.818Z,-0.40
2019-01-04T03:18:32.051Z,-0.30
2019-01-04T03:23:37.323Z,-0.30
2019-01-04T03:28:42.612Z,-0.20
2019-01-04T03:33:47.879Z,-0.10
2019-01-04T03:38:53.118Z,-0.10
2019-01-04T03:43:58.367Z,-0.10
2019-01-04T03:49:03.625Z,-0.20
2019-01-04T03:54:08.878Z,-0.20
2019-01-04T03:59:14.123Z,0.00
2019-01-04T04:04:19.349Z,0.00
2019-01-04T04:09:24.582Z,0.10
2019-01-04T04:14:29.834Z,0.10
2019-01-04T04:19:35.077Z,0.30
2019-01-04T04:24:40.317Z,0.30
2019-01-04T04:29:45.637Z,0.40
2019-01-04T04:34:50.875Z,0.30
2019-01-04T04:39:56.188Z,0.40
2019-01-04T04:45:01.446Z,0.40
2019-01-04T04:50:06.827Z,0.40
2019-01-04T04:55:12.066Z,0.40
2019-01-04T05:00:17.308Z,0.40
2019-01-04T05:05:22.546Z,0.40
2019-01-04T05:10:27.795Z,0.50
2019-01-04T05:15:33.026Z,0.50
2019-01-04T05:20:38.251Z,0.50
2019-01-04T05:25:43.490Z,0.50
2019-01-04T05:30:48.865Z,0.50
2019-01-04T05:35:54.123Z,0.50
2019-01-04T05:40:59.392Z,0.50
2019-01-04T05:46:04.661Z,0.60
2019-01-04T05:51:09.911Z,0.60
2019-01-04T05:56:15.152Z,0.60
2019-01-04T06:01:20.405Z,0.60
2019-01-04T06:06:25.706Z,0.60
2019-01-04T06:11:30.969Z,0.60
2019-01-04T06:16:36.257Z,0.60
2019-01-04T06:21:41.582Z,0.70
2019-01-04T06:26:46.829Z,0.70
2019-01-04T06:31:52.157Z,0.70
2019-01-04T06:36:57.642Z,0.70
2019-01-04T06:42:02.910Z,0.70
2019-01-04T06:47:15.314Z,0.80
2019-01-04T06:52:22.773Z,0.80
2019-01-04T06:57:28.023Z,0.80
2019-01-04T07:02:33.281Z,0.80
2019-01-04T07:07:38.594Z,0.90
2019-01-04T07:12:43.857Z,0.90
2019-01-04T07:17:49.113Z,0.90
2019-01-04T07:22:54.422Z,0.90
2019-01-04T07:27:59.693Z,0.90
2019-01-04T07:33:04.993Z,0.90
2019-01-04T07:38:10.261Z,0.80
2019-01-04T07:43:16.578Z,0.90
2019-01-04T07:48:20.829Z,0.90
2019-01-04T07:53:26.093Z,0.80
2019-01-04T07:58:31.353Z,0.90
2019-01-04T08:03:36.593Z,0.90
2019-01-04T08:08:41.857Z,1.00
2019-01-04T08:13:47.243Z,1.00
2019-01-04T08:18:52.722Z,1.00
2019-01-04T08:23:58.003Z,1.10
2019-01-04T08:29:03.243Z,1.10
2019-01-04T08:34:08.616Z,1.00
2019-01-04T08:39:13.854Z,1.10
2019-01-04T08:44:19.109Z,1.10
2019-01-04T08:49:24.346Z,1.10
2019-01-04T08:54:29.579Z,1.10
2019-01-04T08:59:34.831Z,1.40
2019-01-04T09:04:40.091Z,1.30
2019-01-04T09:09:45.445Z,1.40
2019-01-04T09:14:50.721Z,1.40
2019-01-04T09:19:56.053Z,1.40
2019-01-04T09:25:01.413Z,1.40
2019-01-04T09:30:08.762Z,1.50
2019-01-04T09:35:14.076Z,1.50
2019-01-04T09:40:19.347Z,1.60
2019-01-04T09:45:24.588Z,1.60
2019-01-04T09:50:29.849Z,1.70
2019-01-04T09:55:35.173Z,1.70
2019-01-04T10:00:40.449Z,1.70
2019-01-04T10:05:45.673Z,1.80
2019-01-04T10:10:50.910Z,1.80
2019-01-04T10:15:56.177Z,1.90
2019-01-04T10:21:01.398Z,1.90
2019-01-04T10:26:06.741Z,1.90
2019-01-04T10:31:11.985Z,1.90
2019-01-04T10:36:17.217Z,2.00
2019-01-04T10:41:22.465Z,2.10
2019-01-04T10:46:27.752Z,2.10
2019-01-04T10:51:33.036Z,2.20
2019-01-04T10:56:38.305Z,2.10
2019-01-04T11:01:43.577Z,2.20
2019-01-04T11:06:48.838Z,2.20
2019-01-04T11:11:54.116Z,2.30
2019-01-04T11:16:59.354Z,2.30
2019-01-04T11:22:21.534Z,2.40
2019-01-04T11:27:38.928Z,2.40
2019-01-04T11:33:12.400Z,2.50
2019-01-04T11:38:33.890Z,2.50
2019-01-04T11:44:04.268Z,2.60
2019-01-04T11:49:38.823Z,2.60
2019-01-04T11:54:44.046Z,2.70
2019-01-04T11:59:49.290Z,2.80
2019-01-04T12:04:54.590Z,2.80
2019-01-04T12:09:59.829Z,2.80
2019-01-04T12:15:05.234Z,2.80
2019-01-04T12:20:10.552Z,2.90
2019-01-04T12:25:15.780Z,2.90
2019-01-04T12:30:21.049Z,2.80
2019-01-04T12:35:26.278Z,2.90
2019-01-04T12:40:31.525Z,2.90
2019-01-04T12:45:36.754Z,2.90
2019-01-04T12:50:41.993Z,2.90
2019-01-04T12:55:47.290Z,2.90
2019-01-04T13:00:52.530Z,2.90
2019-01-04T13:05:57.798Z,3.00
2019-01-04T13:11:03.109Z,2.90
2019-01-04T13:16:08.344Z,3.00
2019-01-04T13:21:13.578Z,3.00
2019-01-04T13:26:18.829Z,3.00
2019-01-04T13:31:24.077Z,3.00
2019-01-04T13:36:29.297Z,3.00
2019-01-04T13:41:34.518Z,3.00
2019-01-04T13:46:39.793Z,3.00
2019-01-04T13:51:45.010Z,3.00
2019-01-04T13:56:50.230Z,3.00
2019-01-04T14:01:55.525Z,3.00
2019-01-04T14:07:00.764Z,3.00
2019-01-04T14:12:06.041Z,3.10
2019-01-04T14:17:11.263Z,3.00
2019-01-04T14:22:16.506Z,3.10
2019-01-04T14:27:21.796Z,3.10
2019-01-04T14:32:27.013Z,3.10
2019-01-04T14:37:32.229Z,3.10
2019-01-04T14:42:37.481Z,3.10
2019-01-04T14:47:42.713Z,3.10
2019-01-04T14:52:47.937Z,3.10
2019-01-04T14:57:53.176Z,3.20
2019-01-04T15:02:58.438Z,3.20
2019-01-04T15:08:03.663Z,3.20
2019-01-04T15:13:08.890Z,3.10
2019-01-04T15:18:14.093Z,3.20
2019-01-04T15:23:19.309Z,3.20
2019-01-04T15:28:24.533Z,3.20
2019-01-04T15:33:29.737Z,3.30
2019-01-04T15:38:36.377Z,3.30
2019-01-04T15:43:40.230Z,3.30
2019-01-04T15:48:45.473Z,3.30
2019-01-04T15:53:50.738Z,3.30
2019-01-04T15:58:56.058Z,3.40
2019-01-04T16:04:01.295Z,3.30
2019-01-04T16:09:08.353Z,3.40
2019-01-04T16:14:13.596Z,3.40
2019-01-04T16:19:18.829Z,3.40
2019-01-04T16:24:24.049Z,3.40
2019-01-04T16:29:29.260Z,3.50
2019-01-04T16:34:34.488Z,3.50
2019-01-04T16:39:39.701Z,3.50
2019-01-04T16:44:44.923Z,3.50
2019-01-04T16:49:50.199Z,3.50
2019-01-04T16:54:55.453Z,3.50
2019-01-04T17:00:00.676Z,3.60
2019-01-04T17:05:06.044Z,3.60
2019-01-04T17:10:11.382Z,3.60
2019-01-04T17:15:16.658Z,3.60
2019-01-04T17:20:21.903Z,3.60
2019-01-04T17:25:27.178Z,3.60
2019-01-04T17:30:32.455Z,3.70
2019-01-04T17:35:37.744Z,3.60
2019-01-04T17:40:42.991Z,3.70
2019-01-04T17:45:48.257Z,3.70
2019-01-04T17:50:53.518Z,3.60
2019-01-04T17:55:58.749Z,3.70
2019-01-04T18:01:04.069Z,3.70
2019-01-04T18:06:09.398Z,3.60
2019-01-04T18:11:15.131Z,3.60
2019-01-04T18:16:19.900Z,3.70
2019-01-04T18:21:25.117Z,3.70
2019-01-04T18:26:30.494Z,3.60
2019-01-04T18:31:35.713Z,3.70
2019-01-04T18:36:41.026Z,3.70
2019-01-04T18:41:46.299Z,3.70
2019-01-04T18:46:51.694Z,3.70
2019-01-04T18:51:56.981Z,3.70
2019-01-04T18:57:02.402Z,3.70
2019-01-04T19:02:07.660Z,3.70
2019-01-04T19:07:13.045Z,3.70
2019-01-04T19:12:18.414Z,3.80
2019-01-04T19:17:23.696Z,3.70
2019-01-04T19:22:28.962Z,3.70
2019-01-04T19:27:34.402Z,3.80
2019-01-04T19:32:39.745Z,3.80
2019-01-04T19:37:45.035Z,3.90
2019-01-04T19:42:50.358Z,3.90
2019-01-04T19:47:55.581Z,3.90
2019-01-04T19:53:00.825Z,3.80
2019-01-04T19:58:06.090Z,3.80
2019-01-04T20:03:11.331Z,3.80
2019-01-04T20:08:48.442Z,3.70
2019-01-04T20:17:16.909Z,3.70
2019-01-04T20:22:27.538Z,3.80
2019-01-04T20:27:41.718Z,3.80
2019-01-04T20:32:51.962Z,3.80
2019-01-04T20:38:02.521Z,3.80
2019-01-04T20:43:13.025Z,3.90
2019-01-04T20:48:23.339Z,4.00
2019-01-04T20:53:33.394Z,4.00
2019-01-04T20:58:43.702Z,4.00
2019-01-04T21:03:54.186Z,4.00
2019-01-04T21:09:03.531Z,4.10
2019-01-04T21:15:18.574Z,4.20
2019-01-04T21:21:28.639Z,4.20
2019-01-04T21:26:39.096Z,4.20
2019-01-04T21:32:23.895Z,4.30
2019-01-04T21:37:38.214Z,4.30
2019-01-04T21:42:48.773Z,4.40
2019-01-04T21:48:02.085Z,4.40
2019-01-04T21:53:12.510Z,4.50
2019-01-04T21:58:22.960Z,4.50
2019-01-04T22:03:40.348Z,4.50
2019-01-04T22:08:58.765Z,4.60
2019-01-04T22:14:09.400Z,4.60
2019-01-04T22:19:31.895Z,4.80
2019-01-04T22:24:45.102Z,4.80
2019-01-04T22:29:58.494Z,4.80
2019-01-04T22:35:09.121Z,4.80
2019-01-04T22:41:20.540Z,4.90
2019-01-04T22:46:34.793Z,4.90
2019-01-04T22:52:44.969Z,4.90
2019-01-04T23:00:04.217Z,4.90
2019-01-04T23:05:14.653Z,5.00
2019-01-04T23:11:01.491Z,5.00
2019-01-04T23:16:13.842Z,5.00
2019-01-04T23:21:41.605Z,5.10
2019-01-04T23:26:50.984Z,5.00
2019-01-04T23:32:08.182Z,5.10
2019-01-04T23:37:27.557Z,5.20
2019-01-04T23:42:39.713Z,5.10
2019-01-04T23:47:49.094Z,5.10
2019-01-04T23:53:02.577Z,5.20
2019-01-04T23:58:14.841Z,5.10
